首页
METAR-TAF:

METAR-TAF

机场 :

图斯特拉-古铁雷斯, 墨西哥

纬度: 16-45N, 经度: 093-07W, 海拔: 528米

当前天气观测

该预报发布于1小时和16分钟前的21:45 UTC
风速19节,风向西,有时为29节阵风
温度 26°C
湿度 61%
气压 1016 hPa
能見度: 12.9公里
少量云层高于2000英尺

METAR: MMTG 112145Z 28019G29KT 8SM FEW020 26/18 A3001 RMK 8/400

时间: 17:01 (23:01 UTC)

预报

该预报发布于18小时和11分钟前的04:50 UTC
预报有效从11日的 06点(UTC)到 12日的 06点(UTC)
风速5节,风向西转西北
能見度: 10公里
散云层高于2000英尺
短暂存在
从 11日的 10点(UTC)到 11日的 14点(UTC)
能見度: 3.2公里
散云层高于1000英尺
轻雾
从 11日的 1600点(UTC)
风速12节,风向北转西北
能見度: 10公里
散云层高于2000英尺
从 11日的 2100点(UTC)
风速15节,风向北转西北
能見度: 10公里
多云层高于2000英尺
短暂存在
从 11日的 21点(UTC)到 12日的 01点(UTC)
能見度: 8.0公里
从 12日的 0100点(UTC)
风速10节,风向西转西北
能見度: 8.0公里
阴天层高于2000英尺

TAF: MMTG 110450Z 1106/1206 30005KT P6SM SCT020 TEMPO 1110/1114 2SM BR SCT010 FM111600 33012KT P6SM SCT020 FM112100 33015KT P6SM BKN020 TEMPO 1121/1201 5SM RA FM120100 30010KT 5SM RA OVC020

超过4000个机场的气象观测和天气预报(METAR&TAF报告)。

可查询的气象台以黄色和红色小点在地图上表示。

将鼠标移到小点上方,可查看气象台名称。

然后点击查看天气观测和预报。

如需切换地图:点击带黑十字的绿色按钮放大地图;点击带横线的绿色按钮缩小地图;或者点击绿色箭头查看邻近地区的地图。


METAR-TAF: